Portada
METAR-TAF:

METAR-TAF

Aeropuertos :

Aeródromo de Teruel

Teruel, España

latitud: 40-24-43N, longitud: 01-13-03W, altitud: 1030 m

Observación

El informe se hizo hace 34 minutos, a las 23:00 UTC
Viento 3 kt del sureste
Temperatura 6°C
Humedad 100%
Presión 1012 hPa
Visibilidad 10 km o más
Escasas nubes a una altura de 2600 ft
Cielo nuboso a una altura de 4600 ft

METAR: LETL 312300Z AUTO 14003KT 9999 FEW026 BKN046 06/06 Q1012

Hora: 01:34 (23:34 UTC)


TAF: falta

Observaciones y pronósticos meteorológicos de más de 4000 aeropuertos (mensajes METAR y TAF).

Los puntos amarillos y rojos representan las estaciones disponibles.

Ponga el ratón en el punto deseado para ver el nombre de la estación.

Haga clic para ver las observaciones y los pronósticos meteorológicos.

Para cambiar el mapa : haga clic en los botones verdes con una cruz de color negro para hacer un zoom, en el botón verde con un guión para alejar o en las flechas verdes para mapas adyacentes.


METAR-TAF: